Airfield :
LOGIN :

Register | Disclaimer

   EN    FR    IT 

 










Legend :    VFR   Marginal VFR   IFR   Intensive IFR   Very Intensive IFR
Visi :
Ceiling :
>= 8 km
>= 3000ft
5 to 8 km
1000 to 3000 ft
1500m to 5 km
500 to 1000 ft
800 to 1500m
200 to 500 ft
< 800m
< 200 ft
Symbols :   Thunderstorms  Fog  Heavy snow  Heavy precipitations  Wind > 20 kt
SIGMETs :     Misc.  Thunderstorms  Icing  Turbulence  Mountain Waves  Volcanic Ashes






- Airport Elevation : 13 ft
- IATA code : CEQ


LFMD - Cannes Mandelieu

CURRENT METAR :
  • 201930Z AUTO 03003KT 9999 FEW027 13/11 Q1022 NOSIG

EXPIRED METARs :
  • 201900Z AUTO 03003KT 350V060 7000 FEW027 13/11 Q1022 NOSIG
  • 201830Z AUTO 03003KT 9999 FEW028 14/11 Q1023 NOSIG
  • 201800Z AUTO 01003KT 340V040 9999 FEW029 14/11 Q1023 NOSIG
  • 201730Z AUTO 36003KT CAVOK 15/12 Q1023 NOSIG
  • 201700Z AUTO 36002KT CAVOK 16/12 Q1022 TEMPO 13010KT

TAF AMD TAF LFMD
Valid from the 20 at 17:00 until the 21 at 15:00 UTC


201708Z 2017/2115 36005KT CAVOK
PROB40
TEMPO 2101/2107 06010KT
BECMG 2107/2109 08012KT
TEMPO 2110/2115 09015G25KT
ATIS : +33 4 93 48 73 23



MET'MAP, your aeronautical weather chart ! - Copyright ORBIFLY December 2007 - Disclaimer

ORBIFLY MET'MAP TEAM :

Programming & Development : Alexandra Zaïnal
Concept & original design : Baudouin d'Aumeries
Assistance for programming : Marc-Olivier Méhu
Technical & hardware support : Manuel Goepfert

Contact : metmap@orbifly.com




SOURCES & CREDITS :

   NOAA